createdAt,value
2023-03-26T00:00:15.437Z,9.47
2023-03-26T00:02:47.234Z,9.59
2023-03-26T00:05:15.140Z,9.35
2023-03-26T00:07:44.114Z,9.56
2023-03-26T00:10:21.619Z,9.35
2023-03-26T00:12:49.919Z,9.52
2023-03-26T00:15:19.852Z,9.66
2023-03-26T00:17:48.104Z,9.67
2023-03-26T00:20:16.814Z,9.63
2023-03-26T00:22:45.437Z,9.79
2023-03-26T00:25:14.608Z,9.58
2023-03-26T00:27:45.493Z,9.67
2023-03-26T00:30:14.281Z,9.87
2023-03-26T00:32:44.132Z,9.86
2023-03-26T00:35:22.318Z,9.87
2023-03-26T00:37:51.748Z,9.91
2023-03-26T00:40:20.980Z,9.77
2023-03-26T00:42:51.634Z,9.61
2023-03-26T00:45:22.198Z,9.81
2023-03-26T00:47:51.796Z,9.78
2023-03-26T00:50:19.928Z,9.70
2023-03-26T00:52:48.552Z,9.56
2023-03-26T00:55:17.621Z,9.34
2023-03-26T00:57:47.894Z,9.57
2023-03-26T01:00:19.051Z,9.61
2023-03-26T01:02:47.864Z,9.32
2023-03-26T01:05:46.174Z,9.52
2023-03-26T01:08:20.820Z,9.30
2023-03-26T01:10:54.611Z,9.34
2023-03-26T01:13:25.512Z,9.43
2023-03-26T01:15:53.966Z,9.54
2023-03-26T01:18:26.368Z,9.28
2023-03-26T01:21:05.461Z,9.52
2023-03-26T01:23:43.832Z,9.30
2023-03-26T01:26:26.594Z,9.38
2023-03-26T01:28:58.606Z,9.48
2023-03-26T01:31:31.358Z,9.23
2023-03-26T01:34:12.280Z,9.46
2023-03-26T01:36:58.856Z,9.34
2023-03-26T01:39:32.697Z,9.35
2023-03-26T01:42:13.758Z,9.45
2023-03-26T01:44:46.807Z,9.13
2023-03-26T01:47:16.482Z,9.22
2023-03-26T01:49:45.360Z,9.37
2023-03-26T01:52:17.142Z,9.55
2023-03-26T01:54:47.229Z,9.24
2023-03-26T01:57:26.507Z,9.47
2023-03-26T02:00:12.971Z,9.12
2023-03-26T02:02:55.636Z,9.47
2023-03-26T02:05:29.484Z,9.43
2023-03-26T02:08:04.168Z,9.38
2023-03-26T02:10:39.937Z,8.97
2023-03-26T02:13:11.577Z,9.52
2023-03-26T02:15:46.318Z,9.40
2023-03-26T02:18:17.928Z,9.35
2023-03-26T02:20:49.870Z,9.20
2023-03-26T02:23:18.989Z,9.02
2023-03-26T02:25:47.747Z,9.06
2023-03-26T02:28:21.917Z,9.21
2023-03-26T02:30:57.556Z,9.22
2023-03-26T02:33:27.597Z,9.10
2023-03-26T02:35:59.424Z,9.24
2023-03-26T02:38:28.049Z,9.00
2023-03-26T02:40:57.223Z,9.28
2023-03-26T02:43:26.613Z,9.26
2023-03-26T02:45:56.551Z,9.28
2023-03-26T02:48:26.240Z,9.19
2023-03-26T02:50:55.250Z,9.35
2023-03-26T02:53:29.941Z,9.33
2023-03-26T02:55:58.202Z,9.46
2023-03-26T02:58:32.824Z,9.38
2023-03-26T03:01:04.137Z,9.24
2023-03-26T03:03:32.937Z,9.30
2023-03-26T03:06:04.654Z,9.11
2023-03-26T03:08:33.843Z,9.37
2023-03-26T03:11:09.136Z,9.26
2023-03-26T03:13:39.416Z,9.36
2023-03-26T03:16:08.508Z,9.32
2023-03-26T03:18:39.909Z,9.51
2023-03-26T03:21:10.913Z,9.44
2023-03-26T03:23:39.072Z,9.47
2023-03-26T03:26:14.249Z,9.50
2023-03-26T03:28:46.462Z,9.52
2023-03-26T03:31:16.009Z,9.17
2023-03-26T03:33:46.294Z,9.35
2023-03-26T03:36:20.387Z,9.46
2023-03-26T03:38:50.702Z,9.41
2023-03-26T03:41:18.894Z,9.51
2023-03-26T03:43:48.924Z,9.40
2023-03-26T03:46:18.247Z,9.48
2023-03-26T03:48:49.735Z,9.22
2023-03-26T03:51:22.685Z,9.49
2023-03-26T03:53:51.006Z,9.64
2023-03-26T03:56:24.196Z,9.63
2023-03-26T03:58:55.795Z,9.12
2023-03-26T04:01:25.331Z,9.37
2023-03-26T04:03:55.620Z,9.02
2023-03-26T04:06:25.191Z,9.01
2023-03-26T04:08:53.744Z,9.27
2023-03-26T04:11:21.601Z,9.47
2023-03-26T04:13:50.904Z,9.35
2023-03-26T04:16:22.165Z,9.36
2023-03-26T04:18:53.257Z,9.31
2023-03-26T04:21:21.250Z,8.84
2023-03-26T04:23:50.687Z,9.36
2023-03-26T04:26:20.403Z,8.97
2023-03-26T04:28:54.483Z,9.18
2023-03-26T04:31:29.450Z,9.07
2023-03-26T04:34:06.745Z,8.83
2023-03-26T04:36:36.853Z,9.07
2023-03-26T04:39:06.969Z,9.18
2023-03-26T04:41:35.997Z,9.12
2023-03-26T04:44:05.654Z,9.11
2023-03-26T04:46:36.749Z,9.22
2023-03-26T04:49:05.799Z,9.30
2023-03-26T04:51:39.697Z,9.05
2023-03-26T04:54:13.594Z,9.10
2023-03-26T04:56:48.651Z,8.98
2023-03-26T04:59:26.678Z,9.03
2023-03-26T05:02:00.219Z,9.05
2023-03-26T05:04:29.660Z,8.92
2023-03-26T05:06:59.960Z,9.05
2023-03-26T05:09:28.951Z,9.10
2023-03-26T05:11:57.401Z,9.16
2023-03-26T05:14:25.500Z,8.76
2023-03-26T05:16:54.654Z,8.85
2023-03-26T05:19:26.082Z,8.79
2023-03-26T05:21:56.999Z,9.18
2023-03-26T05:24:25.918Z,9.16
2023-03-26T05:26:54.529Z,9.09
2023-03-26T05:29:24.611Z,9.11
2023-03-26T05:31:52.839Z,9.17
2023-03-26T05:34:24.591Z,9.21
2023-03-26T05:36:55.554Z,9.25
2023-03-26T05:39:26.564Z,9.05
2023-03-26T05:41:55.537Z,9.38
2023-03-26T05:44:25.076Z,9.31
2023-03-26T05:46:54.649Z,9.11
2023-03-26T05:49:23.078Z,9.18
2023-03-26T05:51:51.982Z,9.29
2023-03-26T05:54:22.848Z,9.20
2023-03-26T05:56:52.813Z,9.37
2023-03-26T05:59:22.065Z,9.24
2023-03-26T06:01:51.206Z,9.34
2023-03-26T06:04:19.465Z,9.11
2023-03-26T06:06:48.245Z,9.24
2023-03-26T06:09:16.934Z,9.44
2023-03-26T06:11:46.984Z,9.23
2023-03-26T06:14:18.136Z,9.46
2023-03-26T06:16:46.241Z,9.19
2023-03-26T06:19:14.322Z,9.14
2023-03-26T06:21:43.453Z,9.53
2023-03-26T06:24:12.555Z,9.48
2023-03-26T06:26:44.253Z,9.54
2023-03-26T06:29:15.226Z,9.50
2023-03-26T06:31:44.191Z,9.60
2023-03-26T06:34:15.437Z,9.65
2023-03-26T06:36:52.654Z,9.70
2023-03-26T06:39:21.605Z,9.77
2023-03-26T06:41:49.794Z,10.00
2023-03-26T06:44:20.663Z,9.81
2023-03-26T06:46:49.297Z,9.78
2023-03-26T06:49:17.656Z,9.99
2023-03-26T06:51:50.481Z,10.12
2023-03-26T06:54:18.943Z,10.12
2023-03-26T06:56:47.935Z,10.26
2023-03-26T06:59:17.782Z,10.06
2023-03-26T07:01:48.206Z,10.20
2023-03-26T07:04:18.150Z,10.29
2023-03-26T07:06:46.374Z,10.35
2023-03-26T07:09:16.521Z,10.33
2023-03-26T07:11:44.679Z,10.45
2023-03-26T07:14:13.525Z,10.37
2023-03-26T07:16:41.754Z,10.35
2023-03-26T07:19:14.311Z,10.44
2023-03-26T07:21:44.160Z,10.50
2023-03-26T07:24:17.055Z,10.14
2023-03-26T07:26:56.901Z,10.29
2023-03-26T07:29:35.054Z,10.42
2023-03-26T07:32:17.221Z,10.11
2023-03-26T07:34:54.911Z,10.35
2023-03-26T07:37:38.027Z,10.26
2023-03-26T07:40:17.911Z,10.09
2023-03-26T07:43:01.819Z,10.21
2023-03-26T07:45:38.101Z,10.08
2023-03-26T07:48:15.567Z,9.79
2023-03-26T07:50:48.907Z,9.95
2023-03-26T07:53:18.203Z,9.86
2023-03-26T07:55:54.620Z,9.75
2023-03-26T07:58:41.783Z,9.61
2023-03-26T08:01:18.171Z,9.85
2023-03-26T08:04:23.845Z,9.99
2023-03-26T08:07:01.214Z,9.73
2023-03-26T08:09:35.151Z,9.84
2023-03-26T08:12:14.886Z,9.80
2023-03-26T08:14:52.996Z,9.99
2023-03-26T08:17:32.408Z,9.56
2023-03-26T08:20:17.299Z,9.59
2023-03-26T08:22:55.224Z,9.59
2023-03-26T08:25:33.400Z,9.94
2023-03-26T08:28:15.298Z,9.67
2023-03-26T08:30:45.658Z,9.93
2023-03-26T08:33:20.614Z,9.84
2023-03-26T08:35:50.411Z,9.47
2023-03-26T08:38:21.499Z,9.89
2023-03-26T08:41:24.942Z,9.85
2023-03-26T08:44:31.417Z,9.90
2023-03-26T08:47:33.460Z,9.77
2023-03-26T08:50:50.589Z,9.76
2023-03-26T08:53:57.668Z,10.15
2023-03-26T08:56:43.887Z,9.98
2023-03-26T09:00:08.621Z,9.75
2023-03-26T09:03:08.874Z,9.77
2023-03-26T09:06:20.715Z,10.21
2023-03-26T09:09:30.676Z,9.88
2023-03-26T09:12:40.742Z,9.78
2023-03-26T09:15:51.704Z,10.02
2023-03-26T09:19:05.115Z,9.92
2023-03-26T09:22:13.683Z,10.10
2023-03-26T09:25:20.362Z,10.05
2023-03-26T09:28:20.820Z,9.83
2023-03-26T09:31:21.939Z,9.87
2023-03-26T09:33:59.457Z,9.78
2023-03-26T09:36:55.468Z,9.76
2023-03-26T09:39:36.087Z,10.00
2023-03-26T09:42:14.384Z,10.01
2023-03-26T09:45:06.451Z,10.09
2023-03-26T09:48:10.120Z,10.06
2023-03-26T09:51:04.607Z,10.11
2023-03-26T09:54:13.090Z,10.06
2023-03-26T09:56:52.379Z,10.49
2023-03-26T09:59:54.772Z,10.19
2023-03-26T10:02:50.276Z,9.57
2023-03-26T10:05:34.928Z,10.06
2023-03-26T10:08:32.228Z,10.14
2023-03-26T10:11:13.045Z,10.41
2023-03-26T10:13:56.396Z,10.15
2023-03-26T10:16:34.916Z,10.26
2023-03-26T10:19:26.105Z,10.31
2023-03-26T10:22:04.747Z,10.23
2023-03-26T10:24:45.876Z,9.88
2023-03-26T10:27:29.786Z,10.07
2023-03-26T10:30:35.890Z,10.07
2023-03-26T10:33:14.824Z,10.06
2023-03-26T10:36:06.222Z,10.39
2023-03-26T10:38:48.663Z,10.64
2023-03-26T10:41:23.367Z,11.22
2023-03-26T10:44:27.136Z,11.56
2023-03-26T10:47:22.920Z,11.40
2023-03-26T10:50:22.757Z,11.26
2023-03-26T10:52:59.709Z,11.39
2023-03-26T10:55:33.332Z,11.30
2023-03-26T10:58:06.462Z,11.40
2023-03-26T11:00:40.636Z,11.21
2023-03-26T11:03:34.436Z,11.77
2023-03-26T11:06:17.617Z,11.12
2023-03-26T11:08:56.927Z,11.50
2023-03-26T11:11:36.184Z,12.15
2023-03-26T11:14:24.408Z,11.67
2023-03-26T11:17:39.612Z,12.01
2023-03-26T11:20:29.526Z,12.56
2023-03-26T11:23:19.032Z,11.97
2023-03-26T11:26:05.340Z,11.77
2023-03-26T11:29:03.567Z,11.66
2023-03-26T11:31:50.680Z,11.23
2023-03-26T11:34:24.435Z,10.90
2023-03-26T11:37:04.055Z,11.27
2023-03-26T11:39:45.711Z,10.77
2023-03-26T11:42:24.138Z,10.93
2023-03-26T11:44:58.628Z,11.04
2023-03-26T11:47:34.326Z,11.31
2023-03-26T11:50:25.048Z,11.26
2023-03-26T11:52:54.983Z,11.29
2023-03-26T11:55:34.972Z,11.43
2023-03-26T11:58:13.664Z,11.80
2023-03-26T12:00:50.912Z,12.27
2023-03-26T12:03:23.076Z,12.02
2023-03-26T12:06:04.448Z,12.72
2023-03-26T12:08:39.651Z,12.45
2023-03-26T12:11:11.645Z,13.01
2023-03-26T12:13:46.012Z,12.19
2023-03-26T12:16:18.409Z,12.57
2023-03-26T12:19:06.250Z,12.29
2023-03-26T12:21:53.587Z,12.01
2023-03-26T12:24:33.284Z,12.07
2023-03-26T12:27:06.160Z,12.57
2023-03-26T12:29:38.520Z,12.73
2023-03-26T12:32:14.485Z,12.58
2023-03-26T12:34:43.102Z,13.18
2023-03-26T12:37:38.042Z,12.65
2023-03-26T12:40:27.235Z,12.39
2023-03-26T12:44:53.234Z,11.93
2023-03-26T12:47:54.123Z,12.79
2023-03-26T12:48:53.802Z,13.26
2023-03-26T12:51:42.104Z,13.59
2023-03-26T12:54:39.188Z,13.18
2023-03-26T12:57:22.899Z,13.44
2023-03-26T13:00:14.816Z,13.24
2023-03-26T13:03:01.560Z,13.49
2023-03-26T13:05:41.280Z,13.36
2023-03-26T13:08:33.043Z,13.40
2023-03-26T13:11:12.736Z,13.28
2023-03-26T13:14:00.856Z,13.75
2023-03-26T13:16:38.317Z,13.56
2023-03-26T13:19:14.514Z,13.19
2023-03-26T13:21:56.664Z,13.01
2023-03-26T13:24:39.239Z,12.80
2023-03-26T13:27:23.493Z,12.93
2023-03-26T13:29:57.773Z,12.97
2023-03-26T13:32:41.445Z,12.67
2023-03-26T13:35:26.017Z,13.11
2023-03-26T13:38:01.096Z,13.03
2023-03-26T13:40:43.225Z,12.97
2023-03-26T13:43:31.047Z,12.96
2023-03-26T13:46:08.980Z,12.76
2023-03-26T13:48:48.035Z,12.85
2023-03-26T13:51:20.979Z,12.81
2023-03-26T13:54:01.692Z,12.97
2023-03-26T13:56:36.846Z,12.69
2023-03-26T13:59:15.242Z,12.31
2023-03-26T14:01:53.983Z,12.04
2023-03-26T14:04:27.055Z,11.95
2023-03-26T14:07:04.209Z,12.10
2023-03-26T14:09:38.572Z,12.30
2023-03-26T14:12:40.657Z,12.33
2023-03-26T14:15:18.628Z,12.15
2023-03-26T14:17:52.031Z,12.39
2023-03-26T14:20:56.483Z,12.84
2023-03-26T14:23:46.130Z,12.98
2023-03-26T14:26:27.511Z,12.87
2023-03-26T14:29:26.177Z,13.59
2023-03-26T14:32:04.656Z,15.14
2023-03-26T14:34:46.805Z,14.71
2023-03-26T14:38:09.195Z,13.47
2023-03-26T14:41:03.739Z,13.83
2023-03-26T14:44:04.125Z,13.27
2023-03-26T14:46:47.370Z,13.31
2023-03-26T14:49:40.709Z,14.98
2023-03-26T14:52:19.649Z,16.28
2023-03-26T14:54:53.583Z,16.87
2023-03-26T14:57:47.882Z,16.91
2023-03-26T15:00:38.301Z,18.43
2023-03-26T15:03:53.887Z,16.71
2023-03-26T15:06:53.884Z,15.90
2023-03-26T15:09:57.960Z,14.83
2023-03-26T15:12:42.536Z,15.08
2023-03-26T15:15:53.885Z,14.81
2023-03-26T15:19:14.600Z,13.93
2023-03-26T15:22:20.412Z,14.02
2023-03-26T15:25:31.816Z,14.18
2023-03-26T15:31:51.783Z,15.24
2023-03-26T15:34:50.751Z,15.69
2023-03-26T15:37:44.120Z,14.84
2023-03-26T15:40:43.025Z,14.35
2023-03-26T15:43:16.706Z,14.07
2023-03-26T15:45:48.463Z,13.47
2023-03-26T15:48:43.071Z,13.67
2023-03-26T15:51:47.807Z,13.31
2023-03-26T15:54:24.286Z,13.61
2023-03-26T15:57:18.723Z,13.45
2023-03-26T16:00:15.096Z,12.35
2023-03-26T16:03:09.239Z,10.69
2023-03-26T16:06:00.265Z,9.47
2023-03-26T16:08:39.154Z,9.06
2023-03-26T16:11:12.630Z,8.91
2023-03-26T17:40:50.365Z,9.66
2023-03-26T17:43:52.889Z,9.56
2023-03-26T17:55:52.131Z,9.46
2023-03-26T17:58:33.944Z,9.78
2023-03-26T18:01:46.121Z,9.54
2023-03-26T18:08:32.652Z,9.86
2023-03-26T18:20:33.221Z,9.63
2023-03-26T18:23:27.591Z,9.58
2023-03-26T18:26:03.089Z,9.26
2023-03-26T18:28:41.993Z,9.56
2023-03-26T18:31:23.401Z,9.20
2023-03-26T18:34:05.086Z,9.27
2023-03-26T18:43:44.460Z,8.93
2023-03-26T18:46:24.116Z,9.49
2023-03-26T18:48:57.897Z,9.39
2023-03-26T18:51:46.370Z,9.53
2023-03-26T18:57:23.955Z,9.22
2023-03-26T19:06:11.463Z,9.36
2023-03-26T19:08:44.240Z,9.12
2023-03-26T19:11:23.789Z,8.90
2023-03-26T19:14:07.121Z,9.08
2023-03-26T19:16:44.646Z,8.87
2023-03-26T19:19:20.829Z,9.26
2023-03-26T19:24:37.499Z,9.40
2023-03-26T19:27:10.101Z,9.53
2023-03-26T19:32:34.606Z,9.41
2023-03-26T19:35:16.770Z,9.14
2023-03-26T19:37:57.571Z,9.14
2023-03-26T19:44:16.181Z,8.98
2023-03-26T19:53:37.121Z,9.04
2023-03-26T20:15:22.345Z,9.03
2023-03-26T20:22:09.598Z,8.45
2023-03-26T20:41:54.709Z,8.88
2023-03-26T20:48:32.117Z,8.18
2023-03-26T20:54:37.802Z,8.57
2023-03-26T20:57:16.902Z,8.14
2023-03-26T21:02:32.951Z,8.42
2023-03-26T21:05:03.027Z,8.34
2023-03-26T21:07:35.636Z,7.76
2023-03-26T21:10:09.994Z,8.36
2023-03-26T21:12:46.003Z,8.21
2023-03-26T21:15:22.808Z,7.74
2023-03-26T21:17:55.193Z,7.98
2023-03-26T21:20:30.247Z,7.82
2023-03-26T21:23:10.964Z,8.22
2023-03-26T21:25:55.354Z,7.34
2023-03-26T21:31:26.041Z,7.94
2023-03-26T21:33:57.496Z,7.68
2023-03-26T21:36:30.593Z,7.67
2023-03-26T21:39:42.406Z,7.48
2023-03-26T21:42:18.204Z,7.74
2023-03-26T21:45:10.192Z,7.62
2023-03-26T21:48:02.945Z,7.59
2023-03-26T21:50:38.901Z,7.78
2023-03-26T22:03:01.062Z,7.39
2023-03-26T22:05:52.020Z,7.17
2023-03-26T22:08:44.582Z,7.39
2023-03-26T22:11:18.052Z,7.28
2023-03-26T22:13:47.088Z,7.20
